Time;durP1;ratioP1;P1;durP2;ratioP2;P2;SDS_P1;SDS_P2;PMS_P1;PMS_P2;Temp;Humidity;BMP_temperature;BMP_pressure;BME280_temperature;BME280_humidity;BME280_pressure;Samples;Min_cycle;Max_cycle;Signal;HPM_P1;HPM_P2
2022/08/13 00:00:23;;;;;;;0.65;0.38;;;;;;;29.67;37.91;98666.94;5112671;28;20051;-57
2022/08/13 00:02:49;;;;;;;0.90;0.38;;;;;;;29.68;38.04;98668.53;5112991;28;20040;-57
2022/08/13 00:05:14;;;;;;;0.40;0.40;;;;;;;29.68;37.60;98667.72;5112817;28;20048;-57
2022/08/13 00:07:40;;;;;;;1.30;0.50;;;;;;;29.67;37.61;98677.44;5112720;28;20393;-57
2022/08/13 00:10:21;;;;;;;0.35;0.30;;;;;;;29.68;37.97;98668.53;5112539;28;20057;-57
2022/08/13 00:12:56;;;;;;;0.40;0.40;;;;;;;29.69;37.70;98672.13;5112507;28;20449;-56
2022/08/13 00:15:32;;;;;;;0.50;0.32;;;;;;;29.64;37.77;98667.03;5112520;28;20062;-57
2022/08/13 00:18:04;;;;;;;0.55;0.38;;;;;;;29.68;38.05;98673.38;5112411;28;20132;-57
2022/08/13 00:20:34;;;;;;;0.50;0.40;;;;;;;29.66;38.09;98671.00;5112273;28;20048;-57
2022/08/13 00:22:59;;;;;;;0.38;0.38;;;;;;;29.69;38.03;98674.94;5112285;28;20270;-56
2022/08/13 00:25:25;;;;;;;0.93;0.50;;;;;;;29.66;38.08;98675.84;5112126;28;20046;-57
2022/08/13 00:27:56;;;;;;;0.35;0.35;;;;;;;29.67;37.68;98671.78;5109989;28;20044;-56
2022/08/13 00:30:24;;;;;;;0.45;0.43;;;;;;;29.67;37.96;98668.97;5112419;28;20453;-57
2022/08/13 00:32:50;;;;;;;0.63;0.40;;;;;;;29.67;37.97;98671.78;5112134;28;20042;-56
2022/08/13 00:35:18;;;;;;;0.40;0.40;;;;;;;29.66;37.81;98673.81;5112114;28;20048;-56
2022/08/13 00:37:43;;;;;;;0.63;0.40;;;;;;;29.68;38.04;98674.16;5112172;28;20044;-56
2022/08/13 00:40:10;;;;;;;0.40;0.40;;;;;;;29.65;37.88;98672.25;5112072;28;20051;-57
2022/08/13 00:42:37;;;;;;;0.65;0.47;;;;;;;29.67;38.01;98678.22;5112134;28;20039;-57
2022/08/13 00:45:05;;;;;;;0.68;0.43;;;;;;;29.68;38.13;98673.38;5111889;28;20043;-56
2022/08/13 00:50:14;;;;;;;0.40;0.40;;;;;;;29.68;37.92;98685.44;5112036;28;20074;-56
2022/08/13 00:52:40;;;;;;;0.80;0.45;;;;;;;29.68;38.11;98684.63;5111960;28;20634;-57
2022/08/13 00:55:16;;;;;;;0.70;0.50;;;;;;;29.67;38.25;98678.22;5111730;28;20043;-57
2022/08/13 00:57:44;;;;;;;0.63;0.50;;;;;;;29.68;37.73;98684.63;5112008;28;20035;-56
2022/08/13 01:00:13;;;;;;;0.40;0.40;;;;;;;29.67;37.77;98671.78;5111660;28;20079;-57
2022/08/13 01:02:43;;;;;;;1.05;0.60;;;;;;;29.67;37.71;98686.69;5111113;28;20356;-56
2022/08/13 01:05:09;;;;;;;0.57;0.40;;;;;;;29.67;37.91;98681.03;5111831;28;20035;-56
2022/08/13 01:07:37;;;;;;;0.60;0.40;;;;;;;29.66;37.91;98676.66;5111574;28;20035;-56
2022/08/13 01:10:04;;;;;;;0.70;0.50;;;;;;;29.67;37.79;98689.50;5111660;28;20047;-56
2022/08/13 01:12:30;;;;;;;0.30;0.30;;;;;;;29.68;37.76;98682.59;5111598;28;20059;-57
2022/08/13 01:14:57;;;;;;;0.80;0.47;;;;;;;29.70;37.88;98693.44;5111663;28;20532;-57
2022/08/13 01:17:23;;;;;;;0.40;0.40;;;;;;;29.69;38.04;98687.00;5111325;28;20056;-57
2022/08/13 01:19:51;;;;;;;0.60;0.47;;;;;;;29.68;37.85;98688.25;5111283;28;20082;-59
2022/08/13 01:22:17;;;;;;;0.40;0.30;;;;;;;29.69;37.82;98691.84;5111208;28;20050;-59
2022/08/13 01:24:43;;;;;;;0.80;0.57;;;;;;;29.69;37.88;98686.22;5111451;28;20036;-59
2022/08/13 01:27:13;;;;;;;0.38;0.38;;;;;;;29.73;37.83;98684.09;5111368;28;20055;-59
2022/08/13 01:29:39;;;;;;;0.30;0.30;;;;;;;29.73;38.01;98692.53;5111343;28;20065;-59
2022/08/13 01:32:05;;;;;;;0.50;0.40;;;;;;;29.72;37.96;98685.28;5111196;28;20118;-59
2022/08/13 01:34:32;;;;;;;0.40;0.40;;;;;;;29.72;37.70;98697.38;5111259;28;20040;-59
2022/08/13 01:36:58;;;;;;;0.88;0.52;;;;;;;29.72;37.94;98696.56;5110995;28;20036;-59
2022/08/13 01:39:27;;;;;;;0.77;0.50;;;;;;;29.71;37.76;98692.97;5111067;28;20051;-59
2022/08/13 01:41:53;;;;;;;0.60;0.30;;;;;;;29.74;37.65;98697.72;5110877;28;20055;-59
2022/08/13 01:44:20;;;;;;;0.40;0.40;;;;;;;29.75;38.04;98706.97;5111036;28;20130;-59
2022/08/13 01:52:14;;;;;;;0.30;0.30;;;;;;;29.74;37.77;98700.53;5111254;28;20043;-59
2022/08/13 01:54:41;;;;;;;0.63;0.50;;;;;;;29.75;37.73;98696.47;5110919;28;20048;-60
2022/08/13 01:57:09;;;;;;;0.82;0.60;;;;;;;29.73;37.66;98692.53;5110784;28;20495;-59
2022/08/13 01:59:36;;;;;;;0.57;0.30;;;;;;;29.74;38.08;98700.53;5110881;28;20045;-59
2022/08/13 02:02:03;;;;;;;0.40;0.35;;;;;;;29.76;37.63;98700.06;5110524;28;20048;-59
2022/08/13 02:04:32;;;;;;;0.40;0.32;;;;;;;29.76;37.70;98703.69;5110702;28;20051;-59
2022/08/13 02:06:59;;;;;;;0.30;0.30;;;;;;;29.75;37.69;98698.50;5110917;28;20044;-59
2022/08/13 02:09:26;;;;;;;0.30;0.30;;;;;;;29.77;37.85;98704.47;5110664;28;20340;-59
2022/08/13 02:11:51;;;;;;;0.40;0.38;;;;;;;29.76;37.69;98709.31;5110444;28;20036;-59
2022/08/13 02:14:17;;;;;;;0.40;0.40;;;;;;;29.76;38.03;98700.06;5109549;28;20526;-59
2022/08/13 02:16:43;;;;;;;0.52;0.50;;;;;;;29.77;38.01;98710.88;5110677;28;20056;-59
2022/08/13 02:19:08;;;;;;;0.40;0.40;;;;;;;29.77;37.94;98710.09;5110386;28;20131;-59
2022/08/13 02:21:36;;;;;;;0.40;0.38;;;;;;;29.77;37.72;98708.06;5110422;28;20050;-59
2022/08/13 02:24:03;;;;;;;0.65;0.40;;;;;;;29.76;37.76;98708.53;5110636;28;20043;-59
2022/08/13 02:26:31;;;;;;;0.60;0.35;;;;;;;29.78;37.67;98711.69;5110517;28;20043;-59
2022/08/13 02:28:59;;;;;;;0.40;0.40;;;;;;;29.78;37.86;98711.69;5110388;28;20058;-59
2022/08/13 02:31:26;;;;;;;0.52;0.50;;;;;;;29.77;37.62;98710.88;5110379;28;20043;-59
2022/08/13 02:33:52;;;;;;;0.75;0.60;;;;;;;29.77;38.00;98713.72;5110183;28;20502;-59
2022/08/13 02:36:21;;;;;;;0.60;0.40;;;;;;;29.78;37.98;98712.47;5110158;28;20044;-59
2022/08/13 02:38:56;;;;;;;0.40;0.40;;;;;;;29.79;37.99;98718.88;5110239;28;20530;-59
2022/08/13 02:44:07;;;;;;;0.30;0.30;;;;;;;29.80;37.76;98721.28;5110375;28;20103;-59
2022/08/13 02:46:32;;;;;;;1.10;0.52;;;;;;;29.78;37.50;98717.31;5110172;28;20131;-59
2022/08/13 02:49:02;;;;;;;0.47;0.40;;;;;;;29.79;37.56;98718.88;5109962;28;20096;-58
2022/08/13 02:51:29;;;;;;;0.45;0.30;;;;;;;29.78;37.69;98723.75;5110006;28;20419;-59
2022/08/13 02:53:54;;;;;;;2.03;0.50;;;;;;;29.80;37.74;98717.66;5110034;28;20071;-59
2022/08/13 02:56:22;;;;;;;0.63;0.50;;;;;;;29.80;37.85;98724.09;5109897;28;20110;-59
2022/08/13 02:58:49;;;;;;;0.77;0.50;;;;;;;29.79;37.90;98724.53;5110014;28;20058;-59
2022/08/13 03:01:14;;;;;;;0.35;0.30;;;;;;;29.79;37.52;98727.34;5109835;28;20042;-59
2022/08/13 03:03:40;;;;;;;0.30;0.30;;;;;;;29.80;37.68;98726.91;5109929;28;20035;-59
2022/08/13 03:06:08;;;;;;;1.05;0.50;;;;;;;29.79;37.78;98722.53;5109880;28;20065;-59
2022/08/13 03:08:34;;;;;;;0.38;0.38;;;;;;;29.81;37.92;98727.69;5109546;28;20046;-59
2022/08/13 03:11:00;;;;;;;0.70;0.45;;;;;;;29.80;37.64;98720.50;5109961;28;20040;-59
2022/08/13 03:13:30;;;;;;;0.43;0.35;;;;;;;29.80;37.90;98726.13;5110019;28;20047;-59
2022/08/13 03:15:57;;;;;;;0.50;0.40;;;;;;;29.79;37.54;98721.72;5109866;28;20549;-59
2022/08/13 03:18:24;;;;;;;0.45;0.40;;;;;;;29.79;37.82;98724.53;5109482;28;20056;-59
2022/08/13 03:20:50;;;;;;;0.95;0.45;;;;;;;29.80;37.64;98720.50;5109573;28;20062;-59
2022/08/13 03:23:16;;;;;;;0.40;0.40;;;;;;;29.80;37.90;98731.75;5109807;28;20629;-59
2022/08/13 03:25:42;;;;;;;0.50;0.38;;;;;;;29.79;37.71;98722.53;5111624;28;20059;-59
2022/08/13 03:28:07;;;;;;;1.15;0.60;;;;;;;29.80;37.55;98724.09;5112990;28;20151;-59
2022/08/13 03:30:34;;;;;;;0.40;0.40;;;;;;;29.81;37.54;98724.88;5113341;28;20169;-59
2022/08/13 03:33:08;;;;;;;0.65;0.32;;;;;;;29.79;37.62;98718.88;5113236;28;20121;-59
2022/08/13 03:35:37;;;;;;;0.43;0.38;;;;;;;29.81;37.51;98727.69;5113030;28;20075;-59
2022/08/13 03:38:08;;;;;;;1.00;0.50;;;;;;;29.79;37.83;98724.53;5113000;28;20040;-59
2022/08/13 03:43:20;;;;;;;0.30;0.30;;;;;;;29.80;37.64;98726.91;5113013;28;20050;-59
2022/08/13 03:45:45;;;;;;;0.52;0.40;;;;;;;29.81;37.48;98722.06;5112986;28;20051;-58
2022/08/13 03:48:15;;;;;;;0.60;0.40;;;;;;;29.79;37.74;98718.88;5112945;28;20047;-59
2022/08/13 03:50:46;;;;;;;0.52;0.40;;;;;;;29.80;37.52;98724.09;5112952;28;20040;-59
2022/08/13 03:53:12;;;;;;;0.90;0.45;;;;;;;29.80;37.89;98724.09;5112782;28;20071;-59
2022/08/13 03:55:39;;;;;;;1.92;0.55;;;;;;;29.78;37.92;98717.31;5112809;28;20487;-59
2022/08/13 03:58:06;;;;;;;0.35;0.30;;;;;;;29.81;37.88;98722.06;5112997;28;20040;-59
2022/08/13 04:00:41;;;;;;;0.52;0.40;;;;;;;29.79;37.69;98724.53;5112646;28;20177;-59
2022/08/13 04:03:20;;;;;;;0.82;0.47;;;;;;;29.80;37.84;98726.13;5112761;28;20108;-59
2022/08/13 04:05:55;;;;;;;0.57;0.40;;;;;;;29.81;37.66;98727.69;5112431;28;20092;-59
2022/08/13 04:08:21;;;;;;;0.90;0.40;;;;;;;29.82;37.70;98726.44;5112665;28;20039;-59
2022/08/13 04:10:47;;;;;;;0.43;0.38;;;;;;;29.81;37.47;98722.06;5112815;28;20048;-59
2022/08/13 04:13:18;;;;;;;0.55;0.40;;;;;;;29.81;37.42;98719.25;5112598;28;20423;-59
2022/08/13 04:15:45;;;;;;;0.40;0.40;;;;;;;29.81;37.88;98722.06;5112572;28;20443;-59
2022/08/13 04:18:15;;;;;;;0.60;0.30;;;;;;;29.81;37.74;98722.06;5112535;28;20051;-59
2022/08/13 04:20:53;;;;;;;0.63;0.47;;;;;;;29.79;37.61;98722.53;5112151;28;20528;-59
2022/08/13 04:23:19;;;;;;;0.80;0.50;;;;;;;29.82;37.63;98726.44;5112545;28;20411;-59
2022/08/13 04:25:47;;;;;;;0.70;0.50;;;;;;;29.81;37.65;98730.53;5112386;28;20051;-58
2022/08/13 04:28:14;;;;;;;0.80;0.50;;;;;;;29.81;37.76;98734.13;5112261;28;20047;-59
2022/08/13 04:30:43;;;;;;;0.38;0.38;;;;;;;29.81;37.75;98724.88;5112330;28;20082;-59
2022/08/13 04:33:13;;;;;;;0.50;0.30;;;;;;;29.79;37.78;98728.16;5112280;28;20449;-59
2022/08/13 04:35:39;;;;;;;0.30;0.30;;;;;;;29.82;37.70;98729.28;5112202;28;20052;-59
2022/08/13 04:38:05;;;;;;;0.47;0.45;;;;;;;29.80;37.76;98731.75;5110965;28;20108;-59
2022/08/13 04:40:33;;;;;;;0.50;0.47;;;;;;;29.81;37.69;98730.53;5111933;28;20120;-59
2022/08/13 04:42:59;;;;;;;0.55;0.40;;;;;;;29.82;37.48;98734.91;5112058;28;20039;-59
2022/08/13 04:45:27;;;;;;;0.35;0.35;;;;;;;29.79;37.84;98741.44;5112079;28;20048;-59
2022/08/13 04:47:54;;;;;;;0.75;0.40;;;;;;;29.81;37.46;98738.97;5112002;28;20508;-58
2022/08/13 04:50:19;;;;;;;0.60;0.50;;;;;;;29.81;37.56;98736.94;5112029;28;20126;-59
2022/08/13 04:52:45;;;;;;;1.67;0.40;;;;;;;29.80;37.52;98738.19;5111951;28;20081;-59
2022/08/13 04:55:12;;;;;;;0.32;0.32;;;;;;;29.79;37.40;98730.16;5112141;28;20412;-59
2022/08/13 04:57:38;;;;;;;0.65;0.50;;;;;;;29.81;37.74;98738.97;5111838;28;20046;-59
2022/08/13 05:00:08;;;;;;;0.50;0.40;;;;;;;29.80;37.62;98738.19;5111514;28;20108;-59
2022/08/13 05:02:43;;;;;;;0.40;0.40;;;;;;;29.81;37.86;98747.44;5111662;28;20079;-59
2022/08/13 05:05:12;;;;;;;0.90;0.50;;;;;;;29.80;37.70;98749.47;5111842;28;20052;-59
2022/08/13 05:07:38;;;;;;;0.32;0.30;;;;;;;29.80;37.38;98751.50;5111806;28;20051;-59
2022/08/13 05:10:05;;;;;;;0.60;0.50;;;;;;;29.81;37.78;98756.69;5111671;28;20101;-59
2022/08/13 05:12:36;;;;;;;0.68;0.50;;;;;;;29.81;37.46;98753.06;5111437;28;20559;-59
2022/08/13 05:15:06;;;;;;;0.88;0.40;;;;;;;29.81;37.83;98753.06;5111394;28;20126;-59
2022/08/13 05:17:32;;;;;;;0.70;0.50;;;;;;;29.83;37.84;98750.59;5111426;28;20032;-59
2022/08/13 05:19:59;;;;;;;0.73;0.40;;;;;;;29.83;37.67;98753.41;5111411;28;20054;-59
2022/08/13 05:22:27;;;;;;;0.73;0.52;;;;;;;29.77;37.32;98744.72;5092786;28;20049;-59
2022/08/13 05:24:52;;;;;;;0.30;0.30;;;;;;;29.81;37.59;98755.91;5111439;28;20097;-59
2022/08/13 05:27:18;;;;;;;0.40;0.30;;;;;;;29.81;37.50;98753.06;5111292;28;20044;-59
2022/08/13 05:29:44;;;;;;;0.43;0.40;;;;;;;29.82;37.55;98757.47;5111424;28;20044;-59
2022/08/13 05:32:11;;;;;;;0.55;0.40;;;;;;;29.82;37.92;98757.47;5111342;28;20052;-59
2022/08/13 05:34:37;;;;;;;0.30;0.30;;;;;;;29.82;37.53;98760.28;5111225;28;20050;-59
2022/08/13 05:37:05;;;;;;;0.57;0.50;;;;;;;29.80;37.72;98749.47;5111158;28;20499;-59
2022/08/13 05:39:31;;;;;;;0.88;0.43;;;;;;;29.81;37.84;98755.91;5111243;28;20131;-59
2022/08/13 05:41:56;;;;;;;0.50;0.50;;;;;;;29.81;37.51;98756.69;5111130;28;20046;-59
2022/08/13 05:44:22;;;;;;;0.80;0.50;;;;;;;29.81;37.63;98750.25;5111053;28;20044;-59
2022/08/13 05:46:49;;;;;;;0.50;0.35;;;;;;;29.82;37.56;98757.47;5111097;28;20052;-59
2022/08/13 05:49:15;;;;;;;0.50;0.40;;;;;;;29.80;37.53;98751.50;5110635;28;20036;-59
2022/08/13 05:51:43;;;;;;;0.32;0.30;;;;;;;29.81;37.66;98755.91;5111042;28;20047;-59
2022/08/13 05:54:10;;;;;;;1.08;0.63;;;;;;;29.81;37.71;98759.50;5110823;28;20491;-59
2022/08/13 05:56:37;;;;;;;0.38;0.32;;;;;;;29.82;37.82;98751.81;5110824;28;20100;-59
2022/08/13 05:59:03;;;;;;;0.30;0.30;;;;;;;29.79;37.66;98753.53;5110927;28;20501;-59
2022/08/13 06:04:21;;;;;;;0.40;0.30;;;;;;;29.66;37.61;98766.84;5047699;28;20052;-59
2022/08/13 06:06:47;;;;;;;0.63;0.40;;;;;;;29.51;37.69;98760.88;5047623;28;20051;-59
2022/08/13 06:09:13;;;;;;;0.40;0.40;;;;;;;29.37;38.54;98766.91;5047606;28;20845;-59
2022/08/13 06:11:42;;;;;;;0.57;0.43;;;;;;;29.19;38.89;98761.81;5047720;28;20053;-59
2022/08/13 06:14:08;;;;;;;0.60;0.45;;;;;;;29.01;38.89;98753.91;5047712;28;20085;-59
2022/08/13 06:16:35;;;;;;;0.68;0.50;;;;;;;28.95;39.07;98755.69;5047460;28;20131;-59
2022/08/13 06:19:00;;;;;;;0.57;0.50;;;;;;;28.94;39.26;98765.38;5047524;28;20041;-59
2022/08/13 06:21:27;;;;;;;1.45;0.50;;;;;;;28.91;39.34;98766.25;5047444;28;20110;-59
2022/08/13 06:23:53;;;;;;;0.30;0.30;;;;;;;28.97;39.01;98766.50;5047637;28;20045;-59
2022/08/13 06:26:21;;;;;;;0.90;0.50;;;;;;;28.95;38.98;98766.94;5047689;28;20041;-59
2022/08/13 06:28:49;;;;;;;0.75;0.57;;;;;;;28.94;38.96;98762.56;5047413;28;20160;-59
2022/08/13 06:31:20;;;;;;;0.50;0.50;;;;;;;28.94;38.74;98767.41;5047587;28;21129;-58
2022/08/13 06:33:46;;;;;;;0.52;0.40;;;;;;;28.96;38.82;98765.72;5047460;28;20132;-59
2022/08/13 06:36:16;;;;;;;0.30;0.30;;;;;;;28.92;38.82;98753.75;5047422;28;20574;-59
2022/08/13 06:38:48;;;;;;;0.20;0.20;;;;;;;28.94;38.78;98767.41;5047321;28;20055;-59
2022/08/13 06:41:14;;;;;;;0.75;0.50;;;;;;;28.94;38.86;98765.38;5075203;28;20051;-59
2022/08/13 06:43:42;;;;;;;0.60;0.50;;;;;;;28.93;38.54;98766.59;5110110;28;20044;-59
2022/08/13 06:46:10;;;;;;;0.60;0.50;;;;;;;28.94;38.42;98771.00;5110177;28;20039;-58
2022/08/13 06:48:36;;;;;;;0.60;0.50;;;;;;;28.93;38.40;98769.41;5109874;28;20497;-59
2022/08/13 06:51:06;;;;;;;0.68;0.30;;;;;;;28.93;38.49;98777.06;5109995;28;20032;-59
2022/08/13 06:53:38;;;;;;;0.40;0.40;;;;;;;28.92;38.42;98767.03;5110139;28;20075;-59
2022/08/13 06:56:08;;;;;;;0.30;0.30;;;;;;;28.88;38.34;98766.34;5110032;28;20411;-59
2022/08/13 06:58:36;;;;;;;0.68;0.55;;;;;;;28.90;38.40;98775.13;5109922;28;20056;-59
2022/08/13 07:01:02;;;;;;;0.70;0.40;;;;;;;28.87;38.26;98768.38;5112395;28;20055;-59
2022/08/13 07:03:33;;;;;;;0.57;0.50;;;;;;;28.88;38.19;98778.38;5113643;28;20046;-59
2022/08/13 07:05:59;;;;;;;0.60;0.40;;;;;;;28.85;38.35;98779.25;5113765;28;20407;-59
2022/08/13 07:08:27;;;;;;;0.55;0.40;;;;;;;28.82;38.39;98770.94;5113761;28;20461;-59
2022/08/13 07:13:40;;;;;;;0.40;0.40;;;;;;;28.82;38.26;98777.34;5113561;28;20127;-59
2022/08/13 07:16:10;;;;;;;0.35;0.35;;;;;;;28.82;38.31;98771.72;5113254;28;20047;-59
2022/08/13 07:18:36;;;;;;;0.50;0.50;;;;;;;28.83;38.48;98767.66;5113396;28;20453;-59
2022/08/13 07:21:04;;;;;;;0.43;0.40;;;;;;;28.81;38.40;98770.13;5113331;28;20059;-59
2022/08/13 07:23:29;;;;;;;0.50;0.30;;;;;;;28.79;38.38;98769.78;5113410;28;20452;-59
2022/08/13 07:25:57;;;;;;;0.50;0.50;;;;;;;28.80;38.04;98774.19;5113093;28;20070;-59
2022/08/13 07:28:24;;;;;;;0.57;0.40;;;;;;;28.79;38.33;98759.34;5113042;28;20055;-59
2022/08/13 07:30:52;;;;;;;0.30;0.30;;;;;;;28.83;38.09;98756.41;5113178;28;20555;-59
2022/08/13 07:33:19;;;;;;;0.40;0.40;;;;;;;28.81;38.22;98749.66;5113215;28;20035;-59
2022/08/13 07:35:44;;;;;;;0.45;0.40;;;;;;;28.78;37.94;98754.13;5113085;28;20048;-59
2022/08/13 07:38:10;;;;;;;0.40;0.40;;;;;;;28.72;37.92;98747.47;5113285;28;20042;-59
2022/08/13 07:40:35;;;;;;;0.25;0.20;;;;;;;28.73;38.12;98754.69;5113053;28;20044;-59
2022/08/13 07:43:04;;;;;;;0.60;0.50;;;;;;;28.74;38.14;98754.25;5112938;28;20036;-59
2022/08/13 07:45:29;;;;;;;0.75;0.50;;;;;;;28.78;38.01;98756.94;5112945;28;20109;-59
2022/08/13 07:47:56;;;;;;;0.45;0.40;;;;;;;28.77;37.97;98744.09;5113037;28;20055;-59
2022/08/13 07:50:23;;;;;;;0.50;0.40;;;;;;;28.76;37.78;98757.38;5112937;28;20453;-59
2022/08/13 07:52:55;;;;;;;0.32;0.32;;;;;;;28.73;37.97;98751.88;5112895;28;20043;-59
2022/08/13 07:55:26;;;;;;;0.70;0.47;;;;;;;28.77;38.29;98749.72;5112918;28;20492;-59
2022/08/13 07:57:52;;;;;;;0.70;0.40;;;;;;;28.77;38.29;98761.00;5112897;28;20051;-59
2022/08/13 08:00:29;;;;;;;0.30;0.30;;;;;;;28.74;38.73;98756.25;5112697;28;20052;-59
2022/08/13 08:03:02;;;;;;;0.70;0.50;;;;;;;28.76;38.65;98762.22;5112889;28;20556;-59
2022/08/13 08:05:31;;;;;;;0.40;0.40;;;;;;;28.74;38.85;98762.69;5112725;28;20047;-59
2022/08/13 08:07:58;;;;;;;0.65;0.45;;;;;;;28.72;38.74;98759.53;5112562;28;20568;-59
2022/08/13 08:10:24;;;;;;;0.82;0.30;;;;;;;28.73;38.65;98757.50;5112495;28;20055;-59
2022/08/13 08:12:50;;;;;;;0.57;0.43;;;;;;;28.71;38.99;98754.31;5112498;28;20495;-59
2022/08/13 08:15:15;;;;;;;0.47;0.40;;;;;;;28.77;38.55;98756.16;5112362;28;20039;-59
2022/08/13 08:17:42;;;;;;;0.38;0.38;;;;;;;28.77;37.88;98755.38;5112334;28;20055;-59
2022/08/13 08:20:09;;;;;;;0.50;0.50;;;;;;;28.75;38.51;98749.41;5112466;28;20047;-59
2022/08/13 08:22:35;;;;;;;0.50;0.50;;;;;;;28.71;38.60;98751.50;5112330;28;20045;-59
2022/08/13 08:25:02;;;;;;;0.40;0.40;;;;;;;28.61;38.85;98744.97;5112450;28;20050;-59
2022/08/13 08:27:28;;;;;;;0.55;0.40;;;;;;;28.62;39.07;98745.75;5111470;28;20048;-59
2022/08/13 08:29:53;;;;;;;0.30;0.30;;;;;;;28.64;39.06;98746.88;5110995;28;20043;-59
2022/08/13 08:32:19;;;;;;;0.40;0.40;;;;;;;28.70;38.93;98741.50;5112117;28;20437;-59
2022/08/13 08:34:50;;;;;;;0.70;0.47;;;;;;;28.70;38.84;98752.75;5112278;28;20035;-59
2022/08/13 08:42:54;;;;;;;0.85;0.50;;;;;;;28.82;38.99;98745.59;5112568;28;20109;-59
2022/08/13 08:45:21;;;;;;;0.30;0.30;;;;;;;28.83;38.88;98744.34;5112074;28;20043;-59
2022/08/13 08:47:48;;;;;;;0.95;0.45;;;;;;;28.85;38.66;98744.69;5112208;28;20059;-59
2022/08/13 08:50:15;;;;;;;0.50;0.40;;;;;;;28.85;38.37;98736.25;5111977;28;20123;-59
2022/08/13 08:55:26;;;;;;;0.60;0.50;;;;;;;28.89;38.38;98732.09;5111959;28;20054;-59
2022/08/13 08:57:52;;;;;;;0.43;0.40;;;;;;;28.89;38.18;98731.31;5111968;28;20127;-59
2022/08/13 09:00:20;;;;;;;1.02;0.50;;;;;;;28.85;38.02;98731.41;5111637;28;20083;-59
2022/08/13 09:02:49;;;;;;;0.70;0.35;;;;;;;28.75;38.80;98724.84;5111615;28;20096;-59
2022/08/13 09:05:20;;;;;;;0.40;0.40;;;;;;;28.66;39.08;98732.38;5111637;28;20055;-59
2022/08/13 09:07:46;;;;;;;0.50;0.40;;;;;;;28.64;39.02;98732.81;5111698;28;20044;-59
2022/08/13 09:10:14;;;;;;;0.50;0.35;;;;;;;28.68;38.83;98727.09;5111447;28;20055;-59
2022/08/13 09:12:42;;;;;;;0.25;0.25;;;;;;;28.70;39.02;98718.97;5111655;28;20039;-59
2022/08/13 09:15:10;;;;;;;0.50;0.40;;;;;;;28.69;38.93;98721.00;5111671;28;20044;-59
2022/08/13 09:17:36;;;;;;;0.38;0.38;;;;;;;28.72;38.96;98716.50;5111591;28;20120;-58
2022/08/13 09:20:04;;;;;;;0.50;0.45;;;;;;;28.75;38.79;98712.81;5111532;28;20452;-59
2022/08/13 09:22:29;;;;;;;0.47;0.32;;;;;;;28.75;38.38;98710.78;5110773;28;20039;-59
2022/08/13 09:24:57;;;;;;;0.50;0.40;;;;;;;28.72;38.77;98711.69;5111451;28;20188;-59
2022/08/13 09:27:22;;;;;;;0.52;0.40;;;;;;;28.68;38.97;98704.56;5111400;28;21188;-59
2022/08/13 09:29:50;;;;;;;0.28;0.25;;;;;;;28.63;39.24;98705.91;5111470;28;20051;-59
2022/08/13 09:32:16;;;;;;;0.43;0.32;;;;;;;28.60;39.17;98711.63;5111423;28;20063;-59
2022/08/13 09:34:44;;;;;;;0.73;0.43;;;;;;;28.61;39.19;98699.94;5111374;28;20046;-59
2022/08/13 09:37:11;;;;;;;0.63;0.30;;;;;;;28.66;39.15;98701.41;5111248;28;20434;-60
2022/08/13 09:39:48;;;;;;;0.30;0.30;;;;;;;28.67;39.07;98689.72;5111217;28;20047;-59
2022/08/13 09:42:23;;;;;;;0.47;0.40;;;;;;;28.71;38.92;98684.75;5111281;28;20048;-59
2022/08/13 09:44:54;;;;;;;0.70;0.40;;;;;;;28.74;38.90;98683.09;5111340;28;20519;-58
2022/08/13 09:47:20;;;;;;;0.52;0.40;;;;;;;28.70;38.45;98673.94;5111319;28;20052;-59
2022/08/13 09:49:46;;;;;;;0.30;0.30;;;;;;;28.67;38.91;98672.03;5107179;28;20054;-59
2022/08/13 09:52:11;;;;;;;0.50;0.40;;;;;;;28.63;39.15;98674.94;5110858;28;20065;-59
2022/08/13 09:54:40;;;;;;;0.20;0.20;;;;;;;28.64;39.21;98675.72;5110954;28;20144;-58
2022/08/13 09:57:06;;;;;;;0.30;0.30;;;;;;;28.67;39.04;98686.09;5110973;28;20047;-59
2022/08/13 09:59:32;;;;;;;0.30;0.30;;;;;;;28.71;38.91;98681.16;5110867;28;20048;-59
2022/08/13 10:01:58;;;;;;;0.75;0.50;;;;;;;28.73;39.17;98681.50;5110680;28;20052;-59
2022/08/13 10:04:26;;;;;;;0.28;0.28;;;;;;;28.70;38.37;98674.75;5110649;28;20105;-59
2022/08/13 10:06:52;;;;;;;0.35;0.35;;;;;;;28.70;38.80;98680.38;5110768;28;20040;-59
2022/08/13 10:09:17;;;;;;;0.60;0.40;;;;;;;28.63;39.22;98662.91;5110671;28;20157;-59
2022/08/13 10:11:42;;;;;;;0.75;0.35;;;;;;;28.59;39.37;98671.47;5110655;28;20051;-59
2022/08/13 10:14:08;;;;;;;0.43;0.40;;;;;;;28.63;39.25;98669.31;5110574;28;20474;-59
2022/08/13 10:16:35;;;;;;;0.52;0.40;;;;;;;28.64;39.11;98670.88;5110562;28;20044;-59
2022/08/13 10:19:02;;;;;;;0.40;0.40;;;;;;;28.69;39.10;98663.94;5110517;28;20067;-59
2022/08/13 10:21:28;;;;;;;0.30;0.30;;;;;;;28.71;38.75;98662.25;5110000;28;20506;-59
2022/08/13 10:23:54;;;;;;;0.43;0.40;;;;;;;28.70;38.54;98657.84;5110414;28;20042;-59
2022/08/13 10:26:20;;;;;;;0.40;0.30;;;;;;;28.68;39.14;98651.09;5110458;28;20126;-59
2022/08/13 10:28:47;;;;;;;0.43;0.40;;;;;;;28.63;38.96;98649.63;5110374;28;20097;-58
2022/08/13 10:31:13;;;;;;;0.30;0.30;;;;;;;28.67;39.00;98646.72;5110609;28;20088;-59
2022/08/13 10:33:38;;;;;;;0.40;0.40;;;;;;;28.68;38.75;98654.69;5110396;28;20043;-58
2022/08/13 10:36:05;;;;;;;0.68;0.32;;;;;;;28.71;38.73;98645.34;5109393;28;20044;-59
2022/08/13 10:38:32;;;;;;;0.30;0.30;;;;;;;28.70;38.92;98634.56;5110266;28;21512;-59
2022/08/13 10:41:00;;;;;;;0.30;0.30;;;;;;;28.75;38.91;98637.59;5110264;28;20055;-58
2022/08/13 10:43:27;;;;;;;0.65;0.30;;;;;;;28.78;38.63;98633.09;5110249;28;20071;-59
2022/08/13 10:46:00;;;;;;;0.57;0.47;;;;;;;28.83;38.53;98637.38;5110248;28;20036;-59
2022/08/13 10:48:27;;;;;;;0.50;0.32;;;;;;;28.83;38.56;98632.53;5110345;28;20051;-59
2022/08/13 10:50:53;;;;;;;0.68;0.50;;;;;;;28.84;38.68;98627.69;5110168;28;20043;-59
2022/08/13 10:56:04;;;;;;;0.35;0.30;;;;;;;28.84;38.44;98628.47;5110205;28;20139;-59
2022/08/13 10:58:30;;;;;;;0.73;0.50;;;;;;;28.86;38.23;98619.59;5110127;28;20503;-59
2022/08/13 11:00:56;;;;;;;0.28;0.28;;;;;;;28.88;38.48;98617.13;5110022;28;20101;-59
2022/08/13 11:03:21;;;;;;;0.77;0.40;;;;;;;28.88;38.41;98623.56;5109781;28;20048;-59
2022/08/13 11:05:48;;;;;;;0.25;0.25;;;;;;;28.88;38.21;98601.03;5110027;28;20043;-59
2022/08/13 11:08:14;;;;;;;0.65;0.40;;;;;;;28.91;38.16;98605.78;5109897;28;20396;-59
2022/08/13 11:10:40;;;;;;;0.32;0.30;;;;;;;28.90;38.10;98604.19;5110033;28;20047;-59
2022/08/13 11:13:05;;;;;;;0.80;0.40;;;;;;;28.89;38.05;98608.22;5109961;28;20059;-59
2022/08/13 11:15:32;;;;;;;0.40;0.40;;;;;;;28.92;38.08;98604.53;5109970;28;20042;-59
2022/08/13 11:17:57;;;;;;;0.50;0.30;;;;;;;28.94;38.01;98595.66;5109885;28;20574;-59
2022/08/13 11:20:24;;;;;;;0.40;0.30;;;;;;;28.92;37.20;98601.72;5109696;28;20134;-59
2022/08/13 11:22:56;;;;;;;0.30;0.30;;;;;;;28.82;38.16;98597.19;5109492;28;20048;-59
2022/08/13 11:25:23;;;;;;;0.40;0.32;;;;;;;28.76;38.33;98590.53;5109542;28;20122;-59
2022/08/13 11:27:49;;;;;;;0.50;0.38;;;;;;;28.77;38.27;98589.31;5109491;28;20035;-59
2022/08/13 11:30:16;;;;;;;0.40;0.40;;;;;;;28.76;38.55;98593.34;5109704;28;20044;-59
2022/08/13 11:32:42;;;;;;;0.52;0.40;;;;;;;28.77;38.26;98584.47;5109429;28;20088;-59
2022/08/13 11:35:09;;;;;;;0.30;0.30;;;;;;;28.78;38.28;98583.22;5109668;28;20080;-59
2022/08/13 11:37:35;;;;;;;0.20;0.20;;;;;;;28.80;38.15;98579.97;5109707;28;20058;-59
2022/08/13 11:40:03;;;;;;;1.10;0.30;;;;;;;28.78;37.71;98586.03;5109521;28;20039;-59
2022/08/13 11:42:31;;;;;;;0.20;0.20;;;;;;;28.75;38.27;98574.91;5109308;28;20050;-59
2022/08/13 11:44:57;;;;;;;1.20;0.43;;;;;;;28.72;38.33;98575.78;5109528;28;20036;-59
2022/08/13 11:47:24;;;;;;;0.38;0.30;;;;;;;28.71;38.45;98566.56;5112235;28;20052;-59
2022/08/13 11:49:49;;;;;;;0.80;0.40;;;;;;;28.72;38.61;98570.97;5112925;28;20035;-59
2022/08/13 11:52:15;;;;;;;0.35;0.35;;;;;;;28.73;38.46;98560.50;5112918;28;20444;-59
2022/08/13 11:54:40;;;;;;;0.50;0.30;;;;;;;28.79;38.26;98561.47;5112752;28;20051;-59
2022/08/13 11:57:07;;;;;;;0.63;0.38;;;;;;;28.83;38.05;98553.72;5112562;28;20040;-59
2022/08/13 11:59:32;;;;;;;0.47;0.35;;;;;;;28.85;38.09;98550.47;5112758;28;20071;-59
2022/08/13 12:01:58;;;;;;;0.52;0.43;;;;;;;28.84;38.20;98544.03;5112504;28;20468;-59
2022/08/13 12:04:24;;;;;;;0.32;0.20;;;;;;;28.86;38.11;98543.59;5112715;28;20051;-59